createdAt,value
2022-09-21T00:00:06.682Z,2.50
2022-09-21T00:03:02.085Z,1.60
2022-09-21T00:05:36.712Z,2.10
2022-09-21T00:08:12.554Z,1.80
2022-09-21T00:10:52.328Z,2.40
2022-09-21T00:13:28.215Z,2.50
2022-09-21T00:16:02.195Z,1.90
2022-09-21T00:18:36.732Z,2.00
2022-09-21T00:21:15.298Z,1.90
2022-09-21T00:23:49.345Z,1.80
2022-09-21T00:26:26.381Z,2.10
2022-09-21T00:29:02.664Z,1.90
2022-09-21T00:31:37.800Z,1.80
2022-09-21T00:34:11.685Z,2.00
2022-09-21T00:36:45.388Z,2.20
2022-09-21T00:39:19.210Z,2.00
2022-09-21T00:41:53.753Z,1.70
2022-09-21T00:44:38.634Z,2.40
2022-09-21T00:47:17.700Z,1.80
2022-09-21T00:49:56.661Z,2.00
2022-09-21T00:52:35.781Z,1.90
2022-09-21T00:55:18.544Z,1.90
2022-09-21T00:57:57.741Z,1.60
2022-09-21T01:00:31.949Z,1.60
2022-09-21T01:03:06.705Z,2.60
2022-09-21T01:05:40.476Z,1.90
2022-09-21T01:08:17.199Z,1.90
2022-09-21T01:11:15.411Z,1.80
2022-09-21T01:14:12.605Z,2.00
2022-09-21T01:16:54.466Z,2.00
2022-09-21T01:20:22.968Z,1.90
2022-09-21T01:23:16.804Z,2.40
2022-09-21T01:26:09.925Z,2.10
2022-09-21T01:29:10.911Z,2.10
2022-09-21T01:31:54.567Z,1.90
2022-09-21T01:34:35.803Z,2.20
2022-09-21T01:37:18.980Z,1.90
2022-09-21T01:39:58.292Z,2.10
2022-09-21T01:42:35.176Z,1.90
2022-09-21T01:45:17.297Z,2.10
2022-09-21T01:47:53.190Z,1.90
2022-09-21T01:50:37.623Z,2.30
2022-09-21T01:53:21.751Z,2.50
2022-09-21T01:55:59.539Z,2.00
2022-09-21T01:58:46.425Z,2.00
2022-09-21T02:01:25.637Z,2.10
2022-09-21T02:04:04.512Z,1.50
2022-09-21T02:06:41.586Z,2.00
2022-09-21T02:09:17.337Z,2.20
2022-09-21T02:11:51.257Z,2.50
2022-09-21T02:14:28.299Z,2.10
2022-09-21T02:17:25.586Z,2.40
2022-09-21T02:20:10.819Z,1.80
2022-09-21T02:23:03.435Z,2.30
2022-09-21T02:25:51.400Z,3.10
2022-09-21T02:28:41.341Z,2.80
2022-09-21T02:31:27.584Z,2.60
2022-09-21T02:34:06.194Z,3.20
2022-09-21T02:36:48.742Z,3.10
2022-09-21T02:39:31.778Z,4.30
2022-09-21T02:42:14.472Z,3.90
2022-09-21T02:45:02.558Z,3.70
2022-09-21T02:47:40.916Z,3.50
2022-09-21T02:50:22.468Z,3.70
2022-09-21T02:52:58.129Z,4.30
2022-09-21T02:55:33.506Z,4.60
2022-09-21T02:58:11.313Z,3.90
2022-09-21T03:00:45.195Z,4.40
2022-09-21T03:03:24.883Z,5.20
2022-09-21T03:06:00.012Z,3.70
2022-09-21T03:08:34.573Z,5.00
2022-09-21T03:11:10.917Z,5.50
2022-09-21T03:13:45.139Z,5.60
2022-09-21T03:16:19.418Z,4.30
2022-09-21T03:18:53.604Z,5.40
2022-09-21T03:21:27.345Z,4.20
2022-09-21T03:24:01.291Z,5.70
2022-09-21T03:26:35.757Z,4.30
2022-09-21T03:29:09.897Z,4.20
2022-09-21T03:31:44.249Z,4.20
2022-09-21T03:34:18.157Z,3.80
2022-09-21T03:36:52.074Z,5.40
2022-09-21T03:39:25.819Z,3.80
2022-09-21T03:41:59.698Z,4.20
2022-09-21T03:44:33.388Z,4.60
2022-09-21T03:47:07.708Z,4.10
2022-09-21T03:49:41.555Z,4.10
2022-09-21T03:52:16.903Z,4.80
2022-09-21T03:54:51.377Z,5.70
2022-09-21T03:57:25.052Z,5.20
2022-09-21T03:59:58.954Z,4.50
2022-09-21T04:02:33.227Z,5.40
2022-09-21T04:05:08.593Z,5.30
2022-09-21T04:07:43.149Z,4.80
2022-09-21T04:10:21.410Z,4.80
2022-09-21T04:12:58.037Z,5.30
2022-09-21T04:15:32.542Z,5.20
2022-09-21T04:18:06.687Z,4.70
2022-09-21T04:20:41.636Z,5.90
2022-09-21T04:23:15.359Z,5.00
2022-09-21T04:25:52.494Z,6.00
2022-09-21T04:28:26.368Z,6.40
2022-09-21T04:31:00.241Z,5.80
2022-09-21T04:33:34.254Z,5.20
2022-09-21T04:36:09.250Z,6.30
2022-09-21T04:38:43.272Z,6.00
2022-09-21T04:41:18.445Z,5.20
2022-09-21T04:43:53.306Z,6.10
2022-09-21T04:46:27.134Z,5.60
2022-09-21T04:49:01.514Z,5.90
2022-09-21T04:51:35.552Z,7.90
2022-09-21T04:54:09.967Z,5.60
2022-09-21T04:56:43.956Z,5.90
2022-09-21T04:59:17.764Z,5.70
2022-09-21T05:01:51.558Z,5.20
2022-09-21T05:04:25.879Z,6.70
2022-09-21T05:06:59.962Z,5.30
2022-09-21T05:09:51.461Z,5.90
2022-09-21T05:12:25.265Z,6.70
2022-09-21T05:14:59.627Z,6.70
2022-09-21T05:17:33.735Z,5.70
2022-09-21T05:20:09.514Z,5.80
2022-09-21T05:22:43.644Z,5.70
2022-09-21T05:25:17.781Z,6.00
2022-09-21T05:27:51.771Z,7.60
2022-09-21T05:30:28.506Z,5.50
2022-09-21T05:33:07.654Z,6.60
2022-09-21T05:35:56.636Z,5.50
2022-09-21T05:38:32.608Z,5.50
2022-09-21T05:41:09.514Z,5.40
2022-09-21T05:43:45.524Z,5.40
2022-09-21T05:46:34.419Z,6.50
2022-09-21T05:49:20.637Z,5.10
2022-09-21T05:52:10.187Z,5.20
2022-09-21T05:55:01.449Z,4.50
2022-09-21T05:57:49.108Z,5.50
2022-09-21T06:00:25.970Z,5.70
2022-09-21T06:03:30.327Z,5.40
2022-09-21T06:06:04.685Z,6.10
2022-09-21T06:08:38.855Z,5.50
2022-09-21T06:11:13.053Z,5.20
2022-09-21T06:13:54.812Z,6.80
2022-09-21T06:16:28.889Z,5.00
2022-09-21T06:19:02.871Z,6.20
2022-09-21T06:21:39.098Z,5.20
2022-09-21T06:24:13.152Z,5.20
2022-09-21T06:26:47.102Z,5.70
2022-09-21T06:29:23.830Z,5.00
2022-09-21T06:31:57.791Z,4.80
2022-09-21T06:34:34.868Z,4.30
2022-09-21T06:37:09.146Z,3.50
2022-09-21T06:39:43.176Z,3.90
2022-09-21T06:42:18.520Z,4.20
2022-09-21T06:44:53.651Z,4.10
2022-09-21T06:47:27.876Z,4.50
2022-09-21T06:50:04.532Z,4.10
2022-09-21T06:52:38.889Z,3.50
2022-09-21T06:55:20.312Z,3.80
2022-09-21T06:57:56.676Z,4.10
2022-09-21T07:00:35.619Z,3.40
2022-09-21T07:03:11.690Z,3.60
2022-09-21T07:05:50.278Z,3.90
2022-09-21T07:11:29.480Z,4.20
2022-09-21T07:14:04.373Z,4.40
2022-09-21T07:16:39.654Z,3.70
2022-09-21T07:19:14.889Z,4.40
2022-09-21T07:21:50.188Z,3.40
2022-09-21T07:24:25.388Z,3.80
2022-09-21T07:27:05.098Z,4.40
2022-09-21T07:29:40.095Z,4.10
2022-09-21T07:32:17.084Z,4.90
2022-09-21T07:34:54.271Z,4.50
2022-09-21T07:37:28.990Z,4.60
2022-09-21T07:40:07.601Z,5.20
2022-09-21T07:42:42.466Z,4.70
2022-09-21T07:45:19.169Z,4.90
2022-09-21T07:47:56.732Z,5.90
2022-09-21T07:50:33.798Z,5.00
2022-09-21T07:53:14.297Z,5.20
2022-09-21T07:56:01.545Z,5.40
2022-09-21T07:58:53.995Z,4.80
2022-09-21T08:01:31.106Z,5.50
2022-09-21T08:04:11.173Z,5.30
2022-09-21T08:06:45.161Z,5.10
2022-09-21T08:09:19.513Z,4.90
2022-09-21T08:11:55.824Z,5.10
2022-09-21T08:14:31.972Z,4.80
2022-09-21T08:17:07.291Z,5.20
2022-09-21T08:19:41.508Z,4.70
2022-09-21T08:22:16.601Z,4.50
2022-09-21T08:24:53.072Z,5.20
2022-09-21T08:27:29.953Z,5.10
2022-09-21T08:30:04.164Z,5.00
2022-09-21T08:32:50.639Z,4.70
2022-09-21T08:35:25.681Z,4.30
2022-09-21T08:38:00.527Z,4.70
2022-09-21T08:40:36.009Z,4.50
2022-09-21T08:43:18.069Z,4.60
2022-09-21T08:45:53.158Z,4.90
2022-09-21T08:48:36.796Z,4.70
2022-09-21T08:51:17.052Z,4.40
2022-09-21T08:54:00.257Z,4.50
2022-09-21T08:57:00.986Z,4.70
2022-09-21T08:59:36.057Z,5.50
2022-09-21T09:02:37.842Z,4.10
2022-09-21T09:05:32.823Z,4.50
2022-09-21T09:08:46.513Z,4.50
2022-09-21T09:11:44.687Z,4.00
2022-09-21T09:14:45.206Z,4.10
2022-09-21T09:17:41.183Z,3.50
2022-09-21T09:20:23.084Z,4.20
2022-09-21T09:23:11.949Z,4.20
2022-09-21T09:25:51.865Z,4.40
2022-09-21T09:28:37.540Z,4.40
2022-09-21T09:31:23.592Z,3.40
2022-09-21T09:34:08.933Z,3.50
2022-09-21T09:36:59.248Z,4.20
2022-09-21T09:39:36.645Z,4.20
2022-09-21T09:42:49.952Z,3.10
2022-09-21T09:45:51.806Z,2.60
2022-09-21T09:48:54.190Z,1.90
2022-09-21T09:51:29.063Z,2.50
2022-09-21T09:54:10.169Z,2.20
2022-09-21T09:56:47.214Z,1.90
2022-09-21T09:59:38.204Z,1.90
2022-09-21T10:02:26.468Z,2.00
2022-09-21T10:05:06.337Z,1.70
2022-09-21T10:07:47.008Z,1.90
2022-09-21T10:10:37.072Z,1.80
2022-09-21T10:13:27.277Z,1.60
2022-09-21T10:16:07.202Z,1.80
2022-09-21T10:18:46.654Z,1.90
2022-09-21T10:21:29.399Z,2.00
2022-09-21T10:24:07.742Z,1.70
2022-09-21T10:26:49.338Z,1.60
2022-09-21T10:29:40.137Z,1.60
2022-09-21T10:32:33.978Z,1.50
2022-09-21T10:35:21.968Z,1.60
2022-09-21T10:38:22.762Z,1.60
2022-09-21T10:40:58.228Z,1.40
2022-09-21T10:43:46.385Z,1.40
2022-09-21T10:46:34.166Z,1.30
2022-09-21T10:49:23.482Z,1.40
2022-09-21T10:52:03.049Z,1.40
2022-09-21T10:54:41.278Z,1.00
2022-09-21T10:57:23.315Z,1.10
2022-09-21T10:59:58.605Z,1.00
2022-09-21T11:02:43.183Z,1.20
2022-09-21T11:05:26.225Z,1.20
2022-09-21T11:08:12.469Z,1.00
2022-09-21T11:11:05.043Z,1.00
2022-09-21T11:13:50.426Z,0.90
2022-09-21T11:16:35.132Z,0.90
2022-09-21T11:19:22.779Z,0.80
2022-09-21T11:22:18.849Z,1.00
2022-09-21T11:25:07.382Z,0.80
2022-09-21T11:27:49.387Z,0.70
2022-09-21T11:30:24.569Z,0.80
2022-09-21T11:33:31.452Z,1.00
2022-09-21T11:36:23.189Z,1.00
2022-09-21T11:39:09.523Z,1.00
2022-09-21T11:42:12.152Z,0.80
2022-09-21T11:44:56.759Z,0.80
2022-09-21T11:47:57.575Z,0.80
2022-09-21T11:53:44.907Z,0.80
2022-09-21T11:56:45.685Z,0.80
2022-09-21T11:59:45.381Z,0.80
2022-09-21T12:03:08.982Z,0.70
2022-09-21T12:05:52.376Z,0.70
2022-09-21T12:09:01.369Z,0.70
2022-09-21T12:11:44.893Z,0.70
2022-09-21T12:14:35.061Z,0.60
2022-09-21T12:17:21.361Z,0.60
2022-09-21T12:20:10.220Z,0.50
2022-09-21T12:22:49.755Z,0.70
2022-09-21T12:25:30.072Z,1.10
2022-09-21T12:28:13.703Z,0.90
2022-09-21T12:30:57.311Z,0.80
2022-09-21T12:33:43.470Z,0.70
2022-09-21T12:36:22.693Z,0.70
2022-09-21T12:39:05.026Z,0.70
2022-09-21T12:41:48.807Z,0.60
2022-09-21T12:44:30.276Z,0.70
2022-09-21T12:47:11.586Z,0.80
2022-09-21T12:49:50.406Z,0.70
2022-09-21T12:52:28.110Z,0.80
2022-09-21T12:55:19.657Z,0.80
2022-09-21T12:58:18.576Z,0.70
2022-09-21T13:01:07.733Z,0.90
2022-09-21T13:03:59.721Z,1.00
2022-09-21T13:07:14.185Z,1.10
2022-09-21T13:09:50.765Z,1.00
2022-09-21T13:12:30.654Z,0.80
2022-09-21T13:15:17.988Z,0.70
2022-09-21T13:18:05.976Z,0.90
2022-09-21T13:20:44.418Z,0.90
2022-09-21T13:23:24.954Z,0.80
2022-09-21T13:26:10.160Z,0.90
2022-09-21T13:29:31.045Z,1.00
2022-09-21T13:32:22.066Z,1.20
2022-09-21T13:35:34.638Z,1.00
2022-09-21T13:38:31.147Z,0.90
2022-09-21T13:41:35.450Z,0.80
2022-09-21T13:44:46.479Z,1.00
2022-09-21T13:47:34.914Z,0.80
2022-09-21T13:50:25.587Z,0.80
2022-09-21T13:53:04.222Z,0.80
2022-09-21T13:55:52.642Z,0.90
2022-09-21T13:58:32.391Z,1.10
2022-09-21T14:01:35.575Z,1.10
2022-09-21T14:04:24.726Z,1.10
2022-09-21T14:07:03.935Z,1.20
2022-09-21T14:09:44.209Z,1.10
2022-09-21T14:12:29.716Z,1.20
2022-09-21T14:15:39.295Z,1.20
2022-09-21T14:18:46.121Z,1.20
2022-09-21T14:21:22.601Z,1.10
2022-09-21T14:24:22.180Z,1.10
2022-09-21T14:27:19.673Z,1.00
2022-09-21T14:30:06.398Z,0.80
2022-09-21T14:32:59.169Z,1.50
2022-09-21T14:35:41.726Z,1.10
2022-09-21T14:38:27.626Z,0.90
2022-09-21T14:41:08.965Z,0.70
2022-09-21T14:43:44.648Z,1.00
2022-09-21T14:46:48.236Z,1.10
2022-09-21T14:49:57.579Z,0.90
2022-09-21T14:52:46.953Z,1.30
2022-09-21T14:55:34.799Z,1.10
2022-09-21T14:58:33.642Z,0.90
2022-09-21T15:01:41.909Z,0.70
2022-09-21T15:04:45.934Z,1.10
2022-09-21T15:07:55.328Z,1.20
2022-09-21T15:12:12.758Z,1.30
2022-09-21T15:14:56.493Z,1.30
2022-09-21T15:17:32.663Z,1.40
2022-09-21T15:20:24.720Z,1.20
2022-09-21T15:23:17.670Z,1.00
2022-09-21T15:26:05.058Z,1.20
2022-09-21T15:29:08.445Z,1.20
2022-09-21T15:31:46.804Z,1.20
2022-09-21T15:34:23.526Z,1.00
2022-09-21T15:37:10.323Z,1.20
2022-09-21T15:39:45.099Z,1.30
2022-09-21T15:42:23.695Z,1.20
2022-09-21T15:45:18.001Z,1.40
2022-09-21T15:47:52.270Z,1.20
2022-09-21T15:50:27.381Z,1.10
2022-09-21T15:53:06.824Z,1.20
2022-09-21T15:55:41.275Z,1.30
2022-09-21T15:58:27.075Z,1.40
2022-09-21T16:01:03.183Z,1.40
2022-09-21T16:03:37.869Z,1.30
2022-09-21T16:06:37.185Z,1.10
2022-09-21T16:09:42.742Z,1.00
2022-09-21T16:12:41.897Z,1.00
2022-09-21T16:15:29.455Z,1.00
2022-09-21T16:18:07.139Z,0.90
2022-09-21T16:20:51.320Z,1.20
2022-09-21T16:23:33.201Z,1.00
2022-09-21T16:26:07.883Z,1.10
2022-09-21T16:28:44.872Z,1.10
2022-09-21T16:31:33.897Z,1.00
2022-09-21T16:34:37.464Z,1.10
2022-09-21T16:37:30.501Z,1.20
2022-09-21T16:40:05.132Z,1.30
2022-09-21T16:42:39.798Z,2.00
2022-09-21T16:45:26.626Z,1.30
2022-09-21T16:48:00.604Z,1.00
2022-09-21T16:50:35.262Z,1.20
2022-09-21T16:53:09.331Z,1.00
2022-09-21T16:55:48.785Z,1.20
2022-09-21T16:58:23.724Z,1.20
2022-09-21T17:01:00.806Z,1.20
2022-09-21T17:03:35.261Z,1.20
2022-09-21T17:06:15.120Z,1.10
2022-09-21T17:08:50.254Z,1.20
2022-09-21T17:11:25.198Z,1.10
2022-09-21T17:14:01.412Z,1.20
2022-09-21T17:16:35.505Z,1.10
2022-09-21T17:19:10.280Z,1.30
2022-09-21T17:21:45.707Z,1.10
2022-09-21T17:24:45.915Z,1.50
2022-09-21T17:27:14.710Z,1.50
2022-09-21T17:29:50.023Z,1.50
2022-09-21T17:32:26.490Z,1.40
2022-09-21T17:35:14.596Z,1.50
2022-09-21T17:37:48.587Z,2.30
2022-09-21T17:40:25.493Z,4.20
2022-09-21T17:43:21.664Z,5.60
2022-09-21T17:46:04.622Z,6.60
2022-09-21T17:48:41.657Z,4.70
2022-09-21T17:51:37.727Z,3.80
2022-09-21T17:54:13.472Z,3.20
2022-09-21T17:57:00.160Z,2.60
2022-09-21T17:59:38.507Z,2.70
2022-09-21T18:02:25.760Z,2.80
2022-09-21T18:05:11.289Z,2.80
2022-09-21T18:07:46.629Z,2.30
2022-09-21T18:10:23.146Z,2.90
2022-09-21T18:13:25.565Z,3.80
2022-09-21T18:16:19.992Z,2.70
2022-09-21T18:19:05.758Z,2.60
2022-09-21T18:21:50.700Z,2.60
2022-09-21T18:24:31.574Z,2.80
2022-09-21T18:27:07.790Z,2.60
2022-09-21T18:29:44.493Z,2.90
2022-09-21T18:32:49.530Z,3.00
2022-09-21T18:35:49.604Z,3.00
2022-09-21T18:38:36.705Z,2.70
2022-09-21T18:41:34.625Z,2.80
2022-09-21T18:44:27.590Z,2.90
2022-09-21T18:47:15.644Z,3.10
2022-09-21T18:50:00.853Z,2.80
2022-09-21T18:52:51.703Z,2.80
2022-09-21T18:55:33.597Z,3.10
2022-09-21T18:58:11.197Z,3.60
2022-09-21T19:00:47.616Z,6.10
2022-09-21T19:03:23.769Z,8.90
2022-09-21T19:06:23.496Z,8.00
2022-09-21T19:09:15.911Z,6.70
2022-09-21T19:11:57.860Z,6.20
2022-09-21T19:14:45.176Z,5.60
2022-09-21T19:17:39.423Z,4.60
2022-09-21T19:20:32.356Z,4.40
2022-09-21T19:23:24.586Z,3.90
2022-09-21T19:26:12.297Z,3.90
2022-09-21T19:29:28.436Z,3.70
2022-09-21T19:32:11.105Z,3.50
2022-09-21T19:34:46.454Z,2.90
2022-09-21T19:37:21.438Z,3.10
2022-09-21T19:39:56.325Z,3.10
2022-09-21T19:42:44.787Z,3.00
2022-09-21T19:45:31.450Z,3.30
2022-09-21T19:48:15.513Z,3.50
2022-09-21T19:50:57.980Z,3.20
2022-09-21T19:53:51.714Z,3.60
2022-09-21T19:56:46.672Z,4.70
2022-09-21T19:59:42.139Z,4.10
2022-09-21T20:02:25.398Z,3.60
2022-09-21T20:05:04.714Z,3.70
2022-09-21T20:07:49.353Z,4.50
2022-09-21T20:11:14.175Z,4.70
2022-09-21T20:14:17.585Z,4.30
2022-09-21T20:17:22.871Z,4.10
2022-09-21T20:20:08.450Z,4.30
2022-09-21T20:22:45.061Z,4.20
2022-09-21T20:25:25.760Z,4.10
2022-09-21T20:28:02.116Z,4.00
2022-09-21T20:30:40.322Z,4.00
2022-09-21T20:33:23.764Z,3.90
2022-09-21T20:35:57.889Z,4.10
2022-09-21T20:38:34.368Z,4.30
2022-09-21T20:41:13.157Z,4.20
2022-09-21T20:43:47.870Z,4.60
2022-09-21T20:46:21.972Z,4.70
2022-09-21T20:49:05.807Z,4.80
2022-09-21T20:51:40.669Z,5.00
2022-09-21T20:54:14.861Z,5.10
2022-09-21T20:56:49.138Z,5.10
2022-09-21T20:59:24.098Z,5.10
2022-09-21T21:01:59.156Z,4.70
2022-09-21T21:04:33.752Z,4.40
2022-09-21T21:07:08.594Z,4.70
2022-09-21T21:09:43.274Z,4.60
2022-09-21T21:12:17.998Z,5.00
2022-09-21T21:14:52.161Z,5.20
2022-09-21T21:17:25.879Z,4.90
2022-09-21T21:19:59.479Z,5.70
2022-09-21T21:22:33.420Z,4.40
2022-09-21T21:25:10.257Z,4.60
2022-09-21T21:27:44.092Z,4.20
2022-09-21T21:30:18.702Z,4.30
2022-09-21T21:32:53.237Z,4.50
2022-09-21T21:35:27.086Z,4.20
2022-09-21T21:38:00.948Z,4.40
2022-09-21T21:40:36.957Z,4.40
2022-09-21T21:43:12.294Z,4.50
2022-09-21T21:45:52.564Z,5.00
2022-09-21T21:48:26.354Z,5.20
2022-09-21T21:51:05.160Z,5.20
2022-09-21T21:53:41.261Z,5.00
2022-09-21T21:56:17.536Z,4.90
2022-09-21T21:58:54.620Z,4.60
2022-09-21T22:01:31.258Z,4.40
2022-09-21T22:04:07.065Z,4.20
2022-09-21T22:06:43.202Z,4.80
2022-09-21T22:09:19.008Z,4.20
2022-09-21T22:11:53.047Z,4.00
2022-09-21T22:14:27.341Z,4.10
2022-09-21T22:17:01.557Z,4.30
2022-09-21T22:19:35.233Z,4.50
2022-09-21T22:22:09.495Z,4.40
2022-09-21T22:24:43.335Z,4.40
2022-09-21T22:27:20.009Z,4.70
2022-09-21T22:29:53.610Z,5.30
2022-09-21T22:32:27.197Z,4.70
2022-09-21T22:35:01.209Z,5.10
2022-09-21T22:37:34.907Z,4.60
2022-09-21T22:40:11.134Z,4.40
2022-09-21T22:42:46.319Z,4.30
2022-09-21T22:45:20.328Z,4.50
2022-09-21T22:47:54.018Z,4.20
2022-09-21T22:50:27.810Z,3.50
2022-09-21T22:53:02.195Z,3.30
2022-09-21T22:55:36.547Z,3.80
2022-09-21T22:58:10.617Z,3.70
2022-09-21T23:00:44.472Z,3.50
2022-09-21T23:03:18.340Z,3.40
2022-09-21T23:06:02.388Z,3.70
2022-09-21T23:08:36.947Z,3.50
2022-09-21T23:11:14.486Z,3.70
2022-09-21T23:13:48.901Z,3.50
2022-09-21T23:16:23.595Z,3.20
2022-09-21T23:18:58.769Z,3.30
2022-09-21T23:21:34.448Z,3.30
2022-09-21T23:24:08.547Z,3.30
2022-09-21T23:26:42.777Z,3.80
2022-09-21T23:29:18.938Z,3.40
2022-09-21T23:31:53.021Z,3.00
2022-09-21T23:34:26.940Z,3.30
2022-09-21T23:37:00.629Z,3.20
2022-09-21T23:39:34.617Z,3.30
2022-09-21T23:42:10.653Z,3.20
2022-09-21T23:44:44.396Z,3.50
2022-09-21T23:47:18.050Z,3.30
2022-09-21T23:49:52.114Z,3.50
2022-09-21T23:52:28.741Z,3.50
2022-09-21T23:55:02.591Z,3.40
2022-09-21T23:57:36.179Z,3.20
